sensor_id;sensor_type;location;lat;lon;timestamp;P1;durP1;ratioP1;P2;durP2;ratioP2
74269;SDS011;62754;48.252;11.654;2023-08-17T00:01:32;9.85;;;6.10;;
74269;SDS011;62754;48.252;11.654;2023-08-17T00:04:00;10.20;;;5.90;;
74269;SDS011;62754;48.252;11.654;2023-08-17T00:06:26;7.72;;;5.97;;
74269;SDS011;62754;48.252;11.654;2023-08-17T00:08:52;10.23;;;6.22;;
74269;SDS011;62754;48.252;11.654;2023-08-17T00:11:18;7.57;;;5.68;;
74269;SDS011;62754;48.252;11.654;2023-08-17T00:13:46;7.38;;;6.47;;
74269;SDS011;62754;48.252;11.654;2023-08-17T00:16:12;8.90;;;6.10;;
74269;SDS011;62754;48.252;11.654;2023-08-17T00:18:40;8.35;;;6.10;;
74269;SDS011;62754;48.252;11.654;2023-08-17T00:21:08;8.88;;;6.22;;
74269;SDS011;62754;48.252;11.654;2023-08-17T00:23:36;8.75;;;6.68;;
74269;SDS011;62754;48.252;11.654;2023-08-17T00:26:04;9.10;;;6.45;;
74269;SDS011;62754;48.252;11.654;2023-08-17T00:28:30;9.23;;;6.35;;
74269;SDS011;62754;48.252;11.654;2023-08-17T00:30:56;9.63;;;6.32;;
74269;SDS011;62754;48.252;11.654;2023-08-17T00:33:21;8.68;;;6.53;;
74269;SDS011;62754;48.252;11.654;2023-08-17T00:35:49;9.88;;;6.55;;
74269;SDS011;62754;48.252;11.654;2023-08-17T00:38:15;9.23;;;6.90;;
74269;SDS011;62754;48.252;11.654;2023-08-17T00:40:46;8.70;;;6.13;;
74269;SDS011;62754;48.252;11.654;2023-08-17T00:43:14;9.35;;;6.55;;
74269;SDS011;62754;48.252;11.654;2023-08-17T00:45:40;9.20;;;6.28;;
74269;SDS011;62754;48.252;11.654;2023-08-17T00:48:06;7.63;;;6.65;;
74269;SDS011;62754;48.252;11.654;2023-08-17T00:50:36;9.38;;;7.05;;
74269;SDS011;62754;48.252;11.654;2023-08-17T00:53:04;10.18;;;7.40;;
74269;SDS011;62754;48.252;11.654;2023-08-17T00:55:31;9.65;;;6.82;;
74269;SDS011;62754;48.252;11.654;2023-08-17T00:58:00;8.43;;;6.25;;
74269;SDS011;62754;48.252;11.654;2023-08-17T01:00:29;8.40;;;6.03;;
74269;SDS011;62754;48.252;11.654;2023-08-17T01:02:56;10.07;;;7.75;;
74269;SDS011;62754;48.252;11.654;2023-08-17T01:05:27;8.10;;;6.28;;
74269;SDS011;62754;48.252;11.654;2023-08-17T01:07:56;12.60;;;6.57;;
74269;SDS011;62754;48.252;11.654;2023-08-17T01:10:23;12.10;;;7.85;;
74269;SDS011;62754;48.252;11.654;2023-08-17T01:15:35;11.80;;;7.30;;
74269;SDS011;62754;48.252;11.654;2023-08-17T01:20:46;10.30;;;7.35;;
74269;SDS011;62754;48.252;11.654;2023-08-17T01:23:14;11.07;;;7.05;;
74269;SDS011;62754;48.252;11.654;2023-08-17T01:25:39;11.10;;;7.85;;
74269;SDS011;62754;48.252;11.654;2023-08-17T01:28:05;10.02;;;7.38;;
74269;SDS011;62754;48.252;11.654;2023-08-17T01:30:55;11.82;;;8.27;;
74269;SDS011;62754;48.252;11.654;2023-08-17T01:33:33;12.07;;;8.07;;
74269;SDS011;62754;48.252;11.654;2023-08-17T01:38:37;10.10;;;7.68;;
74269;SDS011;62754;48.252;11.654;2023-08-17T01:41:05;10.23;;;7.80;;
74269;SDS011;62754;48.252;11.654;2023-08-17T01:43:34;14.63;;;9.13;;
74269;SDS011;62754;48.252;11.654;2023-08-17T01:46:03;13.77;;;9.23;;
74269;SDS011;62754;48.252;11.654;2023-08-17T01:48:30;12.48;;;9.80;;
74269;SDS011;62754;48.252;11.654;2023-08-17T01:50:56;12.15;;;9.07;;
74269;SDS011;62754;48.252;11.654;2023-08-17T01:53:22;13.02;;;8.95;;
74269;SDS011;62754;48.252;11.654;2023-08-17T01:55:52;10.05;;;8.13;;
74269;SDS011;62754;48.252;11.654;2023-08-17T01:58:20;10.90;;;8.80;;
74269;SDS011;62754;48.252;11.654;2023-08-17T02:00:51;11.68;;;8.48;;
74269;SDS011;62754;48.252;11.654;2023-08-17T02:03:21;9.63;;;8.23;;
74269;SDS011;62754;48.252;11.654;2023-08-17T02:05:47;11.35;;;8.75;;
74269;SDS011;62754;48.252;11.654;2023-08-17T02:08:13;13.38;;;9.80;;
74269;SDS011;62754;48.252;11.654;2023-08-17T02:10:41;10.90;;;9.18;;
74269;SDS011;62754;48.252;11.654;2023-08-17T02:13:09;10.23;;;8.35;;
74269;SDS011;62754;48.252;11.654;2023-08-17T02:15:40;12.90;;;8.30;;
74269;SDS011;62754;48.252;11.654;2023-08-17T02:18:06;12.15;;;8.48;;
74269;SDS011;62754;48.252;11.654;2023-08-17T02:20:37;14.38;;;8.68;;
74269;SDS011;62754;48.252;11.654;2023-08-17T02:23:03;10.82;;;8.38;;
74269;SDS011;62754;48.252;11.654;2023-08-17T02:25:28;12.32;;;9.68;;
74269;SDS011;62754;48.252;11.654;2023-08-17T02:27:54;12.60;;;9.88;;
74269;SDS011;62754;48.252;11.654;2023-08-17T02:30:22;16.80;;;10.88;;
74269;SDS011;62754;48.252;11.654;2023-08-17T02:32:50;15.35;;;10.52;;
74269;SDS011;62754;48.252;11.654;2023-08-17T02:35:16;14.90;;;10.82;;
74269;SDS011;62754;48.252;11.654;2023-08-17T02:37:44;15.77;;;10.82;;
74269;SDS011;62754;48.252;11.654;2023-08-17T02:40:12;15.05;;;11.23;;
74269;SDS011;62754;48.252;11.654;2023-08-17T02:42:40;13.77;;;11.32;;
74269;SDS011;62754;48.252;11.654;2023-08-17T02:45:08;13.50;;;10.48;;
74269;SDS011;62754;48.252;11.654;2023-08-17T02:47:34;17.48;;;12.35;;
74269;SDS011;62754;48.252;11.654;2023-08-17T02:50:00;15.52;;;11.52;;
74269;SDS011;62754;48.252;11.654;2023-08-17T02:52:30;16.67;;;12.68;;
74269;SDS011;62754;48.252;11.654;2023-08-17T02:54:58;18.42;;;13.18;;
74269;SDS011;62754;48.252;11.654;2023-08-17T02:57:24;19.10;;;13.82;;
74269;SDS011;62754;48.252;11.654;2023-08-17T02:59:52;19.38;;;14.05;;
74269;SDS011;62754;48.252;11.654;2023-08-17T03:02:18;19.02;;;13.60;;
74269;SDS011;62754;48.252;11.654;2023-08-17T03:04:44;17.42;;;13.55;;
74269;SDS011;62754;48.252;11.654;2023-08-17T03:07:10;19.58;;;13.55;;
74269;SDS011;62754;48.252;11.654;2023-08-17T03:09:38;16.45;;;12.32;;
74269;SDS011;62754;48.252;11.654;2023-08-17T03:12:06;17.60;;;13.60;;
74269;SDS011;62754;48.252;11.654;2023-08-17T03:14:37;17.27;;;13.30;;
74269;SDS011;62754;48.252;11.654;2023-08-17T03:17:05;15.60;;;12.55;;
74269;SDS011;62754;48.252;11.654;2023-08-17T03:19:31;16.83;;;12.77;;
74269;SDS011;62754;48.252;11.654;2023-08-17T03:22:01;15.40;;;12.10;;
74269;SDS011;62754;48.252;11.654;2023-08-17T03:24:27;17.48;;;12.30;;
74269;SDS011;62754;48.252;11.654;2023-08-17T03:26:52;15.88;;;12.88;;
74269;SDS011;62754;48.252;11.654;2023-08-17T03:29:18;15.75;;;11.50;;
74269;SDS011;62754;48.252;11.654;2023-08-17T03:31:44;16.77;;;12.55;;
74269;SDS011;62754;48.252;11.654;2023-08-17T03:34:09;16.05;;;12.40;;
74269;SDS011;62754;48.252;11.654;2023-08-17T03:36:35;17.50;;;13.35;;
74269;SDS011;62754;48.252;11.654;2023-08-17T03:39:01;17.05;;;13.55;;
74269;SDS011;62754;48.252;11.654;2023-08-17T03:41:27;18.10;;;13.55;;
74269;SDS011;62754;48.252;11.654;2023-08-17T03:43:55;17.77;;;13.63;;
74269;SDS011;62754;48.252;11.654;2023-08-17T03:46:20;17.40;;;13.82;;
74269;SDS011;62754;48.252;11.654;2023-08-17T03:48:50;17.08;;;13.32;;
74269;SDS011;62754;48.252;11.654;2023-08-17T03:51:16;17.63;;;13.48;;
74269;SDS011;62754;48.252;11.654;2023-08-17T03:53:44;17.75;;;12.77;;
74269;SDS011;62754;48.252;11.654;2023-08-17T03:56:12;15.75;;;12.70;;
74269;SDS011;62754;48.252;11.654;2023-08-17T03:58:42;15.90;;;12.25;;
74269;SDS011;62754;48.252;11.654;2023-08-17T04:01:13;17.17;;;11.68;;
74269;SDS011;62754;48.252;11.654;2023-08-17T04:03:44;13.88;;;11.38;;
74269;SDS011;62754;48.252;11.654;2023-08-17T04:06:09;18.92;;;11.95;;
74269;SDS011;62754;48.252;11.654;2023-08-17T04:08:40;15.32;;;12.32;;
74269;SDS011;62754;48.252;11.654;2023-08-17T04:11:06;16.77;;;12.23;;
74269;SDS011;62754;48.252;11.654;2023-08-17T04:13:32;16.00;;;12.02;;
74269;SDS011;62754;48.252;11.654;2023-08-17T04:16:00;14.63;;;11.52;;
74269;SDS011;62754;48.252;11.654;2023-08-17T04:18:28;16.27;;;12.38;;
74269;SDS011;62754;48.252;11.654;2023-08-17T04:20:56;17.25;;;12.55;;
74269;SDS011;62754;48.252;11.654;2023-08-17T04:23:26;15.25;;;11.82;;
74269;SDS011;62754;48.252;11.654;2023-08-17T04:25:53;15.45;;;11.88;;
74269;SDS011;62754;48.252;11.654;2023-08-17T04:28:19;14.65;;;12.02;;
74269;SDS011;62754;48.252;11.654;2023-08-17T04:30:45;14.50;;;11.80;;
74269;SDS011;62754;48.252;11.654;2023-08-17T04:33:10;16.27;;;12.77;;
74269;SDS011;62754;48.252;11.654;2023-08-17T04:35:36;15.75;;;11.30;;
74269;SDS011;62754;48.252;11.654;2023-08-17T04:38:02;14.73;;;11.95;;
74269;SDS011;62754;48.252;11.654;2023-08-17T04:40:30;16.60;;;12.35;;
74269;SDS011;62754;48.252;11.654;2023-08-17T04:42:56;16.83;;;12.50;;
74269;SDS011;62754;48.252;11.654;2023-08-17T04:45:22;15.70;;;11.32;;
74269;SDS011;62754;48.252;11.654;2023-08-17T04:47:48;14.77;;;11.32;;
74269;SDS011;62754;48.252;11.654;2023-08-17T04:50:14;14.93;;;11.18;;
74269;SDS011;62754;48.252;11.654;2023-08-17T04:52:43;15.98;;;12.60;;
74269;SDS011;62754;48.252;11.654;2023-08-17T04:55:12;15.55;;;12.52;;
74269;SDS011;62754;48.252;11.654;2023-08-17T04:57:38;15.52;;;11.88;;
74269;SDS011;62754;48.252;11.654;2023-08-17T05:00:07;15.10;;;11.18;;
74269;SDS011;62754;48.252;11.654;2023-08-17T05:02:36;13.02;;;9.65;;
74269;SDS011;62754;48.252;11.654;2023-08-17T05:07:31;13.52;;;10.88;;
74269;SDS011;62754;48.252;11.654;2023-08-17T05:09:57;14.63;;;10.60;;
74269;SDS011;62754;48.252;11.654;2023-08-17T05:12:25;13.93;;;11.10;;
74269;SDS011;62754;48.252;11.654;2023-08-17T05:14:51;13.68;;;10.20;;
74269;SDS011;62754;48.252;11.654;2023-08-17T05:17:19;14.98;;;11.18;;
74269;SDS011;62754;48.252;11.654;2023-08-17T05:19:44;13.50;;;10.18;;
74269;SDS011;62754;48.252;11.654;2023-08-17T05:22:12;14.10;;;11.35;;
74269;SDS011;62754;48.252;11.654;2023-08-17T05:24:38;13.48;;;9.90;;
74269;SDS011;62754;48.252;11.654;2023-08-17T05:27:05;10.73;;;9.38;;
74269;SDS011;62754;48.252;11.654;2023-08-17T05:29:33;13.18;;;9.93;;
74269;SDS011;62754;48.252;11.654;2023-08-17T05:32:01;12.15;;;8.77;;
74269;SDS011;62754;48.252;11.654;2023-08-17T05:34:29;13.68;;;9.88;;
74269;SDS011;62754;48.252;11.654;2023-08-17T05:36:57;11.70;;;9.32;;
74269;SDS011;62754;48.252;11.654;2023-08-17T05:39:27;10.50;;;8.65;;
74269;SDS011;62754;48.252;11.654;2023-08-17T05:41:55;11.18;;;8.48;;
74269;SDS011;62754;48.252;11.654;2023-08-17T05:44:21;11.57;;;8.02;;
74269;SDS011;62754;48.252;11.654;2023-08-17T05:46:49;10.20;;;7.75;;
74269;SDS011;62754;48.252;11.654;2023-08-17T05:49:15;9.93;;;7.70;;
74269;SDS011;62754;48.252;11.654;2023-08-17T05:51:41;11.32;;;8.40;;
74269;SDS011;62754;48.252;11.654;2023-08-17T05:54:09;11.73;;;7.93;;
74269;SDS011;62754;48.252;11.654;2023-08-17T05:56:37;11.70;;;7.85;;
74269;SDS011;62754;48.252;11.654;2023-08-17T05:59:03;10.30;;;8.23;;
74269;SDS011;62754;48.252;11.654;2023-08-17T06:01:31;9.95;;;7.50;;
74269;SDS011;62754;48.252;11.654;2023-08-17T06:03:59;9.32;;;7.43;;
74269;SDS011;62754;48.252;11.654;2023-08-17T06:06:27;8.95;;;7.18;;
74269;SDS011;62754;48.252;11.654;2023-08-17T06:08:53;9.27;;;7.30;;
74269;SDS011;62754;48.252;11.654;2023-08-17T06:11:21;10.10;;;7.50;;
74269;SDS011;62754;48.252;11.654;2023-08-17T06:13:49;9.93;;;7.38;;
74269;SDS011;62754;48.252;11.654;2023-08-17T06:16:17;11.30;;;7.82;;
74269;SDS011;62754;48.252;11.654;2023-08-17T06:18:42;10.63;;;8.00;;
74269;SDS011;62754;48.252;11.654;2023-08-17T06:21:10;9.63;;;7.22;;
74269;SDS011;62754;48.252;11.654;2023-08-17T06:23:38;10.38;;;7.68;;
74269;SDS011;62754;48.252;11.654;2023-08-17T06:26:04;10.35;;;7.57;;
74269;SDS011;62754;48.252;11.654;2023-08-17T06:28:30;8.23;;;6.93;;
74269;SDS011;62754;48.252;11.654;2023-08-17T06:30:55;8.85;;;7.40;;
74269;SDS011;62754;48.252;11.654;2023-08-17T06:33:23;10.90;;;7.00;;
74269;SDS011;62754;48.252;11.654;2023-08-17T06:35:49;8.93;;;7.40;;
74269;SDS011;62754;48.252;11.654;2023-08-17T06:38:15;10.32;;;8.18;;
74269;SDS011;62754;48.252;11.654;2023-08-17T06:40:41;10.80;;;7.95;;
74269;SDS011;62754;48.252;11.654;2023-08-17T06:43:07;9.88;;;7.15;;
74269;SDS011;62754;48.252;11.654;2023-08-17T06:45:35;10.13;;;7.90;;
74269;SDS011;62754;48.252;11.654;2023-08-17T06:48:04;9.25;;;7.03;;
74269;SDS011;62754;48.252;11.654;2023-08-17T06:50:32;8.88;;;7.07;;
74269;SDS011;62754;48.252;11.654;2023-08-17T06:52:57;8.43;;;7.25;;
74269;SDS011;62754;48.252;11.654;2023-08-17T06:55:25;10.20;;;6.88;;
74269;SDS011;62754;48.252;11.654;2023-08-17T06:57:53;14.20;;;6.80;;
74269;SDS011;62754;48.252;11.654;2023-08-17T07:00:22;8.15;;;6.95;;
74269;SDS011;62754;48.252;11.654;2023-08-17T07:02:48;9.70;;;7.20;;
74269;SDS011;62754;48.252;11.654;2023-08-17T07:05:17;8.55;;;6.90;;
74269;SDS011;62754;48.252;11.654;2023-08-17T07:07:43;8.52;;;6.55;;
74269;SDS011;62754;48.252;11.654;2023-08-17T07:10:09;10.02;;;6.30;;
74269;SDS011;62754;48.252;11.654;2023-08-17T07:12:36;9.00;;;6.85;;
74269;SDS011;62754;48.252;11.654;2023-08-17T07:15:02;9.10;;;6.47;;
74269;SDS011;62754;48.252;11.654;2023-08-17T07:19:54;7.60;;;6.63;;
74269;SDS011;62754;48.252;11.654;2023-08-17T07:22:24;9.18;;;7.03;;
74269;SDS011;62754;48.252;11.654;2023-08-17T07:24:52;8.68;;;6.65;;
74269;SDS011;62754;48.252;11.654;2023-08-17T07:27:18;11.30;;;6.70;;
74269;SDS011;62754;48.252;11.654;2023-08-17T07:29:48;8.93;;;6.28;;
74269;SDS011;62754;48.252;11.654;2023-08-17T07:32:14;7.30;;;6.07;;
74269;SDS011;62754;48.252;11.654;2023-08-17T07:34:40;9.15;;;6.20;;
74269;SDS011;62754;48.252;11.654;2023-08-17T07:37:10;8.50;;;6.05;;
74269;SDS011;62754;48.252;11.654;2023-08-17T07:39:36;8.35;;;6.18;;
74269;SDS011;62754;48.252;11.654;2023-08-17T07:42:01;6.68;;;5.25;;
74269;SDS011;62754;48.252;11.654;2023-08-17T07:44:30;9.82;;;7.78;;
74269;SDS011;62754;48.252;11.654;2023-08-17T07:46:58;6.88;;;5.57;;
74269;SDS011;62754;48.252;11.654;2023-08-17T07:49:27;8.50;;;5.78;;
74269;SDS011;62754;48.252;11.654;2023-08-17T07:51:53;8.57;;;6.10;;
74269;SDS011;62754;48.252;11.654;2023-08-17T07:54:21;8.95;;;5.70;;
74269;SDS011;62754;48.252;11.654;2023-08-17T07:56:47;7.10;;;5.35;;
74269;SDS011;62754;48.252;11.654;2023-08-17T07:59:13;7.68;;;5.40;;
74269;SDS011;62754;48.252;11.654;2023-08-17T08:01:43;7.75;;;5.55;;
74269;SDS011;62754;48.252;11.654;2023-08-17T08:04:13;6.50;;;5.30;;
74269;SDS011;62754;48.252;11.654;2023-08-17T08:06:39;8.40;;;4.90;;
74269;SDS011;62754;48.252;11.654;2023-08-17T08:09:07;7.93;;;5.22;;
74269;SDS011;62754;48.252;11.654;2023-08-17T08:11:33;6.80;;;5.03;;
74269;SDS011;62754;48.252;11.654;2023-08-17T08:14:04;5.88;;;4.78;;
74269;SDS011;62754;48.252;11.654;2023-08-17T08:16:35;6.85;;;5.60;;
74269;SDS011;62754;48.252;11.654;2023-08-17T08:19:03;6.47;;;4.90;;
74269;SDS011;62754;48.252;11.654;2023-08-17T08:21:29;6.45;;;5.13;;
74269;SDS011;62754;48.252;11.654;2023-08-17T08:26:21;5.97;;;4.90;;
74269;SDS011;62754;48.252;11.654;2023-08-17T08:31:15;6.50;;;5.20;;
74269;SDS011;62754;48.252;11.654;2023-08-17T08:36:06;8.65;;;4.65;;
74269;SDS011;62754;48.252;11.654;2023-08-17T08:38:36;5.43;;;3.88;;
74269;SDS011;62754;48.252;11.654;2023-08-17T08:41:04;6.45;;;4.95;;
74269;SDS011;62754;48.252;11.654;2023-08-17T08:43:33;7.25;;;4.80;;
74269;SDS011;62754;48.252;11.654;2023-08-17T08:48:25;7.88;;;4.70;;
74269;SDS011;62754;48.252;11.654;2023-08-17T08:50:52;7.55;;;5.18;;
74269;SDS011;62754;48.252;11.654;2023-08-17T08:53:22;6.60;;;4.85;;
74269;SDS011;62754;48.252;11.654;2023-08-17T08:55:54;5.68;;;4.65;;
74269;SDS011;62754;48.252;11.654;2023-08-17T08:58:22;6.70;;;4.60;;
74269;SDS011;62754;48.252;11.654;2023-08-17T09:00:53;7.45;;;4.38;;
74269;SDS011;62754;48.252;11.654;2023-08-17T09:03:20;6.57;;;4.60;;
74269;SDS011;62754;48.252;11.654;2023-08-17T09:05:49;6.28;;;4.88;;
74269;SDS011;62754;48.252;11.654;2023-08-17T09:08:20;5.45;;;4.60;;
74269;SDS011;62754;48.252;11.654;2023-08-17T09:10:47;6.43;;;4.22;;
74269;SDS011;62754;48.252;11.654;2023-08-17T09:13:15;7.55;;;5.20;;
74269;SDS011;62754;48.252;11.654;2023-08-17T09:15:43;8.05;;;6.75;;
74269;SDS011;62754;48.252;11.654;2023-08-17T09:18:09;6.63;;;5.40;;
74269;SDS011;62754;48.252;11.654;2023-08-17T09:20:39;7.22;;;5.22;;
74269;SDS011;62754;48.252;11.654;2023-08-17T09:23:09;6.75;;;4.65;;
74269;SDS011;62754;48.252;11.654;2023-08-17T09:25:44;6.20;;;4.45;;
74269;SDS011;62754;48.252;11.654;2023-08-17T09:31:00;6.47;;;5.30;;
74269;SDS011;62754;48.252;11.654;2023-08-17T09:33:29;7.32;;;4.90;;
74269;SDS011;62754;48.252;11.654;2023-08-17T09:35:56;6.90;;;5.00;;
74269;SDS011;62754;48.252;11.654;2023-08-17T09:38:26;5.60;;;5.00;;
74269;SDS011;62754;48.252;11.654;2023-08-17T09:40:52;8.30;;;4.70;;
74269;SDS011;62754;48.252;11.654;2023-08-17T09:43:19;5.82;;;4.90;;
74269;SDS011;62754;48.252;11.654;2023-08-17T09:45:47;8.75;;;5.43;;
74269;SDS011;62754;48.252;11.654;2023-08-17T09:48:17;5.53;;;4.80;;
74269;SDS011;62754;48.252;11.654;2023-08-17T09:50:45;7.45;;;5.57;;
74269;SDS011;62754;48.252;11.654;2023-08-17T09:53:15;5.82;;;5.22;;
74269;SDS011;62754;48.252;11.654;2023-08-17T09:55:42;6.28;;;5.65;;
74269;SDS011;62754;48.252;11.654;2023-08-17T09:58:12;6.72;;;5.57;;
74269;SDS011;62754;48.252;11.654;2023-08-17T10:00:41;7.05;;;5.47;;
74269;SDS011;62754;48.252;11.654;2023-08-17T10:03:11;6.20;;;4.90;;
74269;SDS011;62754;48.252;11.654;2023-08-17T10:05:42;7.10;;;5.82;;
74269;SDS011;62754;48.252;11.654;2023-08-17T10:08:10;6.38;;;5.20;;
74269;SDS011;62754;48.252;11.654;2023-08-17T10:10:40;7.07;;;4.90;;
74269;SDS011;62754;48.252;11.654;2023-08-17T10:15:35;6.22;;;5.60;;
74269;SDS011;62754;48.252;11.654;2023-08-17T10:18:50;7.95;;;5.93;;
74269;SDS011;62754;48.252;11.654;2023-08-17T10:21:02;6.90;;;5.55;;
74269;SDS011;62754;48.252;11.654;2023-08-17T10:23:31;7.72;;;5.57;;
74269;SDS011;62754;48.252;11.654;2023-08-17T10:25:56;8.07;;;5.38;;
74269;SDS011;62754;48.252;11.654;2023-08-17T10:28:23;8.18;;;5.40;;
74269;SDS011;62754;48.252;11.654;2023-08-17T10:30:49;6.20;;;5.18;;
74269;SDS011;62754;48.252;11.654;2023-08-17T10:33:21;6.95;;;5.78;;
74269;SDS011;62754;48.252;11.654;2023-08-17T10:35:47;6.03;;;5.38;;
74269;SDS011;62754;48.252;11.654;2023-08-17T10:38:16;6.97;;;5.53;;
74269;SDS011;62754;48.252;11.654;2023-08-17T10:40:44;6.82;;;5.53;;
74269;SDS011;62754;48.252;11.654;2023-08-17T10:43:09;6.10;;;5.32;;
74269;SDS011;62754;48.252;11.654;2023-08-17T10:45:40;6.60;;;5.38;;
74269;SDS011;62754;48.252;11.654;2023-08-17T10:50:39;6.72;;;5.18;;
74269;SDS011;62754;48.252;11.654;2023-08-17T10:53:08;5.80;;;4.90;;
74269;SDS011;62754;48.252;11.654;2023-08-17T10:55:38;7.45;;;5.05;;
74269;SDS011;62754;48.252;11.654;2023-08-17T10:58:05;5.63;;;5.07;;
74269;SDS011;62754;48.252;11.654;2023-08-17T11:00:31;6.00;;;4.75;;
74269;SDS011;62754;48.252;11.654;2023-08-17T11:03:01;6.00;;;5.10;;
74269;SDS011;62754;48.252;11.654;2023-08-17T11:08:11;5.68;;;4.75;;
74269;SDS011;62754;48.252;11.654;2023-08-17T11:11:28;5.68;;;4.95;;
74269;SDS011;62754;48.252;11.654;2023-08-17T11:13:36;5.90;;;5.30;;
74269;SDS011;62754;48.252;11.654;2023-08-17T11:16:04;5.07;;;4.50;;
74269;SDS011;62754;48.252;11.654;2023-08-17T11:18:34;5.82;;;4.65;;
74269;SDS011;62754;48.252;11.654;2023-08-17T11:21:06;7.38;;;5.07;;
74269;SDS011;62754;48.252;11.654;2023-08-17T11:23:35;6.05;;;4.97;;
74269;SDS011;62754;48.252;11.654;2023-08-17T11:26:02;5.38;;;4.70;;
74269;SDS011;62754;48.252;11.654;2023-08-17T11:28:34;5.88;;;5.20;;
74269;SDS011;62754;48.252;11.654;2023-08-17T11:31:03;5.20;;;4.70;;
74269;SDS011;62754;48.252;11.654;2023-08-17T11:33:31;5.18;;;4.68;;
74269;SDS011;62754;48.252;11.654;2023-08-17T11:35:57;5.05;;;4.45;;
74269;SDS011;62754;48.252;11.654;2023-08-17T11:38:25;5.03;;;4.50;;
74269;SDS011;62754;48.252;11.654;2023-08-17T11:40:51;5.22;;;4.53;;
74269;SDS011;62754;48.252;11.654;2023-08-17T11:43:19;4.88;;;4.20;;
74269;SDS011;62754;48.252;11.654;2023-08-17T11:45:49;5.30;;;4.50;;
74269;SDS011;62754;48.252;11.654;2023-08-17T11:48:19;5.47;;;4.43;;
74269;SDS011;62754;48.252;11.654;2023-08-17T11:50:48;5.78;;;4.65;;
74269;SDS011;62754;48.252;11.654;2023-08-17T11:53:14;7.03;;;4.72;;
74269;SDS011;62754;48.252;11.654;2023-08-17T11:55:40;6.30;;;4.50;;
74269;SDS011;62754;48.252;11.654;2023-08-17T11:58:11;5.47;;;4.97;;
74269;SDS011;62754;48.252;11.654;2023-08-17T12:00:41;5.32;;;4.82;;
74269;SDS011;62754;48.252;11.654;2023-08-17T12:03:08;5.38;;;4.88;;
74269;SDS011;62754;48.252;11.654;2023-08-17T12:05:39;7.22;;;5.38;;
74269;SDS011;62754;48.252;11.654;2023-08-17T12:08:07;6.20;;;5.10;;
74269;SDS011;62754;48.252;11.654;2023-08-17T12:10:36;5.60;;;5.05;;
74269;SDS011;62754;48.252;11.654;2023-08-17T12:13:02;6.03;;;5.00;;
74269;SDS011;62754;48.252;11.654;2023-08-17T12:15:34;5.90;;;5.30;;
74269;SDS011;62754;48.252;11.654;2023-08-17T12:18:03;5.70;;;4.78;;
74269;SDS011;62754;48.252;11.654;2023-08-17T12:20:32;6.15;;;4.82;;
74269;SDS011;62754;48.252;11.654;2023-08-17T12:22:58;7.20;;;5.50;;
74269;SDS011;62754;48.252;11.654;2023-08-17T12:25:24;9.32;;;5.38;;
74269;SDS011;62754;48.252;11.654;2023-08-17T12:27:57;6.13;;;5.10;;
74269;SDS011;62754;48.252;11.654;2023-08-17T12:30:27;5.95;;;5.35;;
74269;SDS011;62754;48.252;11.654;2023-08-17T12:32:56;5.75;;;5.15;;
74269;SDS011;62754;48.252;11.654;2023-08-17T12:35:22;5.88;;;5.28;;
74269;SDS011;62754;48.252;11.654;2023-08-17T12:37:50;6.60;;;5.38;;
74269;SDS011;62754;48.252;11.654;2023-08-17T12:40:19;7.28;;;5.57;;
74269;SDS011;62754;48.252;11.654;2023-08-17T12:42:50;6.93;;;5.28;;
74269;SDS011;62754;48.252;11.654;2023-08-17T12:45:16;5.25;;;4.75;;
74269;SDS011;62754;48.252;11.654;2023-08-17T12:47:45;6.45;;;4.88;;
74269;SDS011;62754;48.252;11.654;2023-08-17T12:50:11;5.75;;;5.18;;
74269;SDS011;62754;48.252;11.654;2023-08-17T12:52:36;5.43;;;4.93;;
74269;SDS011;62754;48.252;11.654;2023-08-17T12:55:02;6.95;;;4.70;;
74269;SDS011;62754;48.252;11.654;2023-08-17T12:57:28;5.30;;;4.80;;
74269;SDS011;62754;48.252;11.654;2023-08-17T12:59:54;6.20;;;5.60;;
74269;SDS011;62754;48.252;11.654;2023-08-17T13:02:20;5.95;;;5.30;;
74269;SDS011;62754;48.252;11.654;2023-08-17T13:04:50;5.82;;;4.90;;
74269;SDS011;62754;48.252;11.654;2023-08-17T13:07:18;5.00;;;4.50;;
74269;SDS011;62754;48.252;11.654;2023-08-17T13:09:44;6.60;;;4.93;;
74269;SDS011;62754;48.252;11.654;2023-08-17T13:12:12;5.75;;;4.80;;
74269;SDS011;62754;48.252;11.654;2023-08-17T13:14:38;5.28;;;4.75;;
74269;SDS011;62754;48.252;11.654;2023-08-17T13:17:04;6.30;;;4.57;;
74269;SDS011;62754;48.252;11.654;2023-08-17T13:19:32;6.38;;;4.57;;
74269;SDS011;62754;48.252;11.654;2023-08-17T13:22:00;4.57;;;4.15;;
74269;SDS011;62754;48.252;11.654;2023-08-17T13:24:26;5.38;;;4.88;;
74269;SDS011;62754;48.252;11.654;2023-08-17T13:26:52;6.72;;;5.53;;
74269;SDS011;62754;48.252;11.654;2023-08-17T13:29:20;5.70;;;5.07;;
74269;SDS011;62754;48.252;11.654;2023-08-17T13:31:49;5.28;;;4.78;;
74269;SDS011;62754;48.252;11.654;2023-08-17T13:34:14;6.95;;;5.22;;
74269;SDS011;62754;48.252;11.654;2023-08-17T13:36:40;5.95;;;5.25;;
74269;SDS011;62754;48.252;11.654;2023-08-17T13:39:08;7.00;;;5.28;;
74269;SDS011;62754;48.252;11.654;2023-08-17T13:41:34;5.22;;;4.70;;
74269;SDS011;62754;48.252;11.654;2023-08-17T13:44:03;6.60;;;5.50;;
74269;SDS011;62754;48.252;11.654;2023-08-17T13:46:28;5.82;;;5.22;;
74269;SDS011;62754;48.252;11.654;2023-08-17T13:48:54;6.65;;;5.05;;
74269;SDS011;62754;48.252;11.654;2023-08-17T13:51:22;7.60;;;5.38;;
74269;SDS011;62754;48.252;11.654;2023-08-17T13:53:50;4.75;;;4.35;;
74269;SDS011;62754;48.252;11.654;2023-08-17T13:56:18;5.85;;;5.22;;
74269;SDS011;62754;48.252;11.654;2023-08-17T13:58:44;7.22;;;5.45;;
74269;SDS011;62754;48.252;11.654;2023-08-17T14:01:10;5.90;;;5.30;;
74269;SDS011;62754;48.252;11.654;2023-08-17T14:03:38;7.05;;;5.55;;
74269;SDS011;62754;48.252;11.654;2023-08-17T14:06:06;6.32;;;5.20;;
74269;SDS011;62754;48.252;11.654;2023-08-17T14:08:31;5.80;;;5.30;;
74269;SDS011;62754;48.252;11.654;2023-08-17T14:10:57;5.03;;;4.53;;
74269;SDS011;62754;48.252;11.654;2023-08-17T14:13:23;6.07;;;5.30;;
74269;SDS011;62754;48.252;11.654;2023-08-17T14:15:51;9.68;;;5.70;;
74269;SDS011;62754;48.252;11.654;2023-08-17T14:18:21;7.18;;;5.82;;
74269;SDS011;62754;48.252;11.654;2023-08-17T14:20:52;6.68;;;5.63;;
74269;SDS011;62754;48.252;11.654;2023-08-17T14:23:20;6.53;;;5.82;;
74269;SDS011;62754;48.252;11.654;2023-08-17T14:25:48;7.75;;;6.25;;
74269;SDS011;62754;48.252;11.654;2023-08-17T14:28:16;9.00;;;6.00;;
74269;SDS011;62754;48.252;11.654;2023-08-17T14:30:44;7.60;;;6.47;;
74269;SDS011;62754;48.252;11.654;2023-08-17T14:33:12;7.25;;;6.55;;
74269;SDS011;62754;48.252;11.654;2023-08-17T14:35:38;7.07;;;6.15;;
74269;SDS011;62754;48.252;11.654;2023-08-17T14:38:03;6.60;;;5.75;;
74269;SDS011;62754;48.252;11.654;2023-08-17T14:40:31;6.90;;;6.20;;
74269;SDS011;62754;48.252;11.654;2023-08-17T14:42:57;7.80;;;6.40;;
74269;SDS011;62754;48.252;11.654;2023-08-17T14:45:23;6.55;;;5.90;;
74269;SDS011;62754;48.252;11.654;2023-08-17T14:47:49;6.80;;;5.93;;
74269;SDS011;62754;48.252;11.654;2023-08-17T14:50:14;6.93;;;5.75;;
74269;SDS011;62754;48.252;11.654;2023-08-17T14:52:42;7.60;;;6.20;;
74269;SDS011;62754;48.252;11.654;2023-08-17T14:55:11;6.57;;;5.93;;
74269;SDS011;62754;48.252;11.654;2023-08-17T14:57:40;7.15;;;6.13;;
74269;SDS011;62754;48.252;11.654;2023-08-17T15:00:07;8.77;;;6.20;;
74269;SDS011;62754;48.252;11.654;2023-08-17T15:02:33;6.00;;;5.05;;
74269;SDS011;62754;48.252;11.654;2023-08-17T15:05:05;6.55;;;5.35;;